Time;durP1;ratioP1;P1;durP2;ratioP2;P2;SDS_P1;SDS_P2;PMS_P1;PMS_P2;Temp;Humidity;BMP_temperature;BMP_pressure;BME280_temperature;BME280_humidity;BME280_pressure;Samples;Min_cycle;Max_cycle;Signal;HPM_P1;HPM_P2
2022/01/30 00:02:14;;;;;;;12.00;4.00;;;7.50;99.90;;;;;;5072280;28;20183;-79
2022/01/30 00:04:40;;;;;;;6.63;3.50;;;7.50;99.90;;;;;;5071912;28;20650;-79
2022/01/30 00:07:06;;;;;;;10.20;3.47;;;7.50;99.90;;;;;;5071858;28;20207;-79
2022/01/30 00:09:32;;;;;;;12.30;4.07;;;7.50;99.90;;;;;;5071971;28;20186;-79
2022/01/30 00:12:01;;;;;;;13.27;4.67;;;7.40;99.90;;;;;;5071695;28;20409;-79
2022/01/30 00:17:30;;;;;;;14.17;4.17;;;7.40;99.90;;;;;;5131554;22;20491;-80
2022/01/30 00:20:02;;;;;;;15.23;4.17;;;7.40;99.90;;;;;;5092785;28;20454;-80
2022/01/30 00:25:04;;;;;;;8.57;4.00;;;7.30;99.90;;;;;;5092320;28;20431;-80
2022/01/30 00:27:33;;;;;;;14.80;5.10;;;7.30;99.90;;;;;;5093599;28;20456;-79
2022/01/30 00:29:59;;;;;;;11.63;3.97;;;7.20;99.90;;;;;;5097990;28;20419;-79
2022/01/30 00:32:25;;;;;;;14.17;4.47;;;7.20;99.90;;;;;;5079067;28;20408;-79
2022/01/30 00:34:50;;;;;;;7.67;3.47;;;7.20;99.90;;;;;;5078948;28;20826;-79
2022/01/30 00:37:17;;;;;;;11.30;4.10;;;7.10;99.90;;;;;;5078964;28;20428;-79
2022/01/30 00:39:42;;;;;;;7.37;4.00;;;7.10;99.90;;;;;;5079074;28;20600;-79
2022/01/30 00:42:09;;;;;;;13.20;4.77;;;7.10;99.90;;;;;;5097340;28;20420;-79
2022/01/30 00:44:34;;;;;;;14.27;4.20;;;7.10;99.90;;;;;;5079228;28;20189;-79
2022/01/30 00:47:03;;;;;;;8.87;4.10;;;7.10;99.90;;;;;;5078586;28;20550;-79
2022/01/30 00:49:28;;;;;;;12.70;4.40;;;7.00;99.90;;;;;;5097131;28;20208;-79
2022/01/30 00:51:54;;;;;;;7.57;4.00;;;6.90;99.90;;;;;;5096720;28;20911;-79
2022/01/30 00:54:20;;;;;;;19.27;5.13;;;6.90;99.90;;;;;;5096958;28;20178;-78
2022/01/30 00:56:45;;;;;;;6.70;3.40;;;6.80;99.90;;;;;;5078669;28;20688;-78
2022/01/30 00:59:11;;;;;;;11.77;4.77;;;6.70;99.90;;;;;;5079497;28;20412;-78
2022/01/30 01:01:36;;;;;;;13.57;3.97;;;6.70;99.90;;;;;;5078718;28;20178;-78
2022/01/30 01:04:02;;;;;;;11.70;4.63;;;6.80;99.90;;;;;;5078514;28;20202;-78
2022/01/30 01:06:28;;;;;;;13.33;3.87;;;6.70;99.90;;;;;;5096263;28;20212;-79
2022/01/30 01:09:00;;;;;;;7.87;3.67;;;6.70;99.90;;;;;;5078527;28;20671;-78
2022/01/30 01:12:41;;;;;;;13.50;3.57;;;6.70;99.90;;;;;;5078613;28;20175;-78
2022/01/30 01:25:20;;;;;;;10.30;4.53;;;6.50;99.90;;;;;;5094788;28;20446;-80
2022/01/30 01:27:46;;;;;;;18.57;4.93;;;6.50;99.90;;;;;;5094975;28;20558;-80
2022/01/30 01:30:12;;;;;;;14.57;3.57;;;6.50;99.90;;;;;;5094923;28;20178;-80
2022/01/30 01:32:38;;;;;;;19.73;4.30;;;6.50;99.90;;;;;;5077640;28;20246;-79
2022/01/30 01:35:04;;;;;;;17.17;4.17;;;6.50;99.90;;;;;;5095401;28;20452;-79
2022/01/30 01:37:30;;;;;;;8.93;3.80;;;6.50;99.90;;;;;;5075945;28;20215;-79
2022/01/30 01:39:55;;;;;;;14.50;4.00;;;6.50;99.90;;;;;;5094123;28;20499;-79
2022/01/30 01:42:21;;;;;;;10.10;3.10;;;6.40;99.90;;;;;;5094438;28;20644;-79
2022/01/30 01:44:51;;;;;;;11.13;4.00;;;6.40;99.90;;;;;;5076483;28;20206;-79
2022/01/30 01:47:20;;;;;;;15.53;3.50;;;6.40;99.90;;;;;;5076630;28;20202;-79
2022/01/30 01:49:47;;;;;;;12.70;3.50;;;6.40;99.90;;;;;;5076130;28;20471;-79
2022/01/30 01:54:42;;;;;;;10.83;3.93;;;6.30;99.90;;;;;;5095460;28;20859;-79
2022/01/30 01:57:07;;;;;;;12.90;5.03;;;6.30;99.90;;;;;;5097312;28;20463;-79
2022/01/30 01:59:33;;;;;;;14.80;3.57;;;6.30;99.90;;;;;;5078966;28;20552;-79
2022/01/30 02:02:01;;;;;;;8.60;3.00;;;6.30;99.90;;;;;;5079160;28;20202;-79
2022/01/30 02:04:27;;;;;;;11.97;5.30;;;6.30;99.90;;;;;;5078924;28;20174;-78
2022/01/30 02:07:04;;;;;;;12.50;4.00;;;6.30;99.90;;;;;;5097572;28;20463;-78
2022/01/30 02:09:32;;;;;;;11.90;3.90;;;6.30;99.90;;;;;;5096929;28;20436;-79
2022/01/30 02:11:59;;;;;;;12.30;3.57;;;6.30;99.90;;;;;;5096547;28;20935;-79
2022/01/30 02:14:36;;;;;;;12.80;3.77;;;6.20;99.90;;;;;;5096983;28;20458;-79
2022/01/30 02:25:27;;;;;;;15.67;5.20;;;6.20;99.90;;;;;;5096135;28;20441;-79
2022/01/30 02:27:57;;;;;;;15.37;3.30;;;6.30;99.90;;;;;;5095497;28;20459;-79
2022/01/30 02:30:25;;;;;;;11.00;4.60;;;6.20;99.90;;;;;;5095712;28;20828;-79
2022/01/30 02:32:51;;;;;;;12.07;4.10;;;6.20;99.90;;;;;;5095831;28;20465;-79
2022/01/30 02:35:17;;;;;;;16.10;4.30;;;6.20;99.90;;;;;;5077397;28;20431;-79
2022/01/30 02:37:43;;;;;;;11.97;4.70;;;6.10;99.90;;;;;;5095634;28;20261;-79
2022/01/30 02:40:12;;;;;;;13.80;3.70;;;6.10;99.90;;;;;;5095642;28;20194;-79
2022/01/30 02:42:42;;;;;;;14.70;3.97;;;6.10;99.90;;;;;;5094412;28;20911;-78
2022/01/30 02:45:11;;;;;;;21.73;4.20;;;6.10;99.90;;;;;;5075188;28;20523;-80
2022/01/30 02:50:12;;;;;;;11.90;4.43;;;6.40;99.90;;;;;;5095497;28;20432;-81
2022/01/30 02:52:40;;;;;;;9.77;3.00;;;6.40;99.90;;;;;;5079358;28;20191;-81
2022/01/30 02:55:07;;;;;;;9.23;4.23;;;6.50;99.90;;;;;;5079448;28;20436;-81
2022/01/30 02:57:33;;;;;;;15.27;4.17;;;6.40;99.90;;;;;;5097066;28;20514;-81
2022/01/30 02:59:58;;;;;;;8.90;3.83;;;6.40;99.90;;;;;;5096957;28;20450;-82
2022/01/30 03:02:24;;;;;;;15.97;4.73;;;6.30;99.90;;;;;;5098782;28;20188;-80
2022/01/30 03:04:50;;;;;;;14.17;4.07;;;6.20;99.90;;;;;;5081047;28;20201;-78
2022/01/30 03:07:15;;;;;;;11.27;4.30;;;6.20;99.90;;;;;;5098717;28;20251;-81
2022/01/30 03:09:41;;;;;;;11.53;3.23;;;6.20;99.90;;;;;;5080328;28;20865;-80
2022/01/30 03:12:07;;;;;;;12.27;3.33;;;6.10;99.90;;;;;;5079935;28;20550;-80
2022/01/30 03:14:33;;;;;;;9.07;3.50;;;6.10;99.90;;;;;;5097466;28;20275;-80
2022/01/30 03:16:58;;;;;;;12.17;3.43;;;6.10;99.90;;;;;;5092509;28;20437;-78
2022/01/30 03:19:24;;;;;;;14.43;3.40;;;6.10;99.90;;;;;;5092615;28;20195;-79
2022/01/30 03:21:50;;;;;;;13.93;3.90;;;6.00;99.90;;;;;;5074499;28;20204;-79
2022/01/30 03:24:15;;;;;;;17.00;4.27;;;6.00;99.90;;;;;;5092560;28;20643;-79
2022/01/30 03:26:41;;;;;;;16.93;4.63;;;5.90;99.90;;;;;;5092212;28;20285;-79
2022/01/30 03:29:08;;;;;;;10.07;4.10;;;6.00;99.90;;;;;;5074326;28;20181;-78
2022/01/30 03:31:40;;;;;;;10.93;3.83;;;6.00;99.90;;;;;;5073917;28;20489;-78
2022/01/30 03:34:08;;;;;;;13.80;3.40;;;5.90;99.90;;;;;;5092340;28;20419;-79
2022/01/30 03:36:34;;;;;;;14.60;3.90;;;6.00;99.90;;;;;;5075353;28;20824;-78
2022/01/30 03:39:00;;;;;;;15.70;4.40;;;6.00;99.90;;;;;;5077561;28;20430;-79
2022/01/30 03:41:26;;;;;;;10.83;4.13;;;6.00;99.90;;;;;;5079981;28;20519;-78
2022/01/30 03:43:52;;;;;;;16.50;4.53;;;6.10;99.90;;;;;;5081207;28;20196;-79
2022/01/30 03:46:19;;;;;;;12.90;3.00;;;6.10;99.90;;;;;;5079731;28;20832;-79
2022/01/30 03:48:45;;;;;;;12.93;3.77;;;6.10;99.90;;;;;;5080287;28;20920;-79
2022/01/30 03:51:11;;;;;;;10.53;4.90;;;6.20;99.90;;;;;;5079573;28;20419;-80
2022/01/30 03:53:37;;;;;;;11.07;3.87;;;6.20;99.90;;;;;;5096640;28;20412;-80
2022/01/30 03:56:03;;;;;;;12.90;3.63;;;6.10;99.90;;;;;;5077863;28;20795;-80
2022/01/30 03:58:29;;;;;;;17.60;4.07;;;6.10;99.90;;;;;;5077808;28;20190;-81
2022/01/30 04:00:55;;;;;;;12.00;4.17;;;6.00;99.90;;;;;;5077415;28;20482;-80
2022/01/30 04:03:20;;;;;;;10.23;4.20;;;6.00;99.90;;;;;;5100044;28;20183;-80
2022/01/30 04:05:46;;;;;;;13.03;3.70;;;6.00;99.90;;;;;;5100213;28;20201;-79
2022/01/30 04:08:12;;;;;;;14.93;3.00;;;6.00;99.90;;;;;;5081358;28;20185;-80
2022/01/30 04:10:38;;;;;;;7.90;3.63;;;6.00;99.90;;;;;;5081301;28;20545;-78
2022/01/30 04:13:03;;;;;;;16.17;3.60;;;6.00;99.90;;;;;;5099630;28;20177;-80
2022/01/30 04:15:29;;;;;;;11.63;3.20;;;6.10;99.90;;;;;;5099275;28;20459;-80
2022/01/30 04:17:55;;;;;;;9.57;2.87;;;6.10;99.90;;;;;;5080849;28;20189;-80
2022/01/30 04:20:21;;;;;;;7.83;3.07;;;6.20;99.90;;;;;;5098733;28;20443;-80
2022/01/30 04:22:46;;;;;;;9.33;2.60;;;6.20;99.90;;;;;;5080620;28;20181;-79
2022/01/30 04:25:12;;;;;;;13.27;3.93;;;6.20;99.90;;;;;;5081162;28;20201;-79
2022/01/30 04:27:38;;;;;;;11.87;3.33;;;6.30;99.90;;;;;;5080964;28;20247;-79
2022/01/30 04:30:05;;;;;;;12.57;3.37;;;6.20;99.90;;;;;;5081884;28;20181;-78
2022/01/30 04:32:33;;;;;;;19.63;4.73;;;6.20;99.90;;;;;;5081767;28;20261;-78
2022/01/30 04:35:00;;;;;;;15.43;4.43;;;6.10;99.90;;;;;;5099020;28;20422;-79
2022/01/30 04:38:08;;;;;;;14.70;3.43;;;6.10;99.90;;;;;;5080342;28;20433;-79
2022/01/30 05:07:32;;;;;;;9.27;3.00;;;6.20;99.90;;;;;;5097008;28;20993;-80
2022/01/30 05:09:58;;;;;;;7.47;3.53;;;6.20;99.90;;;;;;5097305;28;20946;-80
2022/01/30 05:12:30;;;;;;;19.43;3.67;;;6.20;99.90;;;;;;5096768;28;20405;-80
2022/01/30 05:14:56;;;;;;;9.73;2.90;;;6.30;99.90;;;;;;5097039;28;20193;-79
2022/01/30 05:17:21;;;;;;;19.67;4.10;;;6.30;99.90;;;;;;5079151;28;20414;-79
2022/01/30 05:19:47;;;;;;;12.60;3.30;;;6.30;99.90;;;;;;5097284;28;20173;-80
2022/01/30 05:22:14;;;;;;;8.83;3.40;;;6.30;99.90;;;;;;5096716;28;20181;-80
2022/01/30 05:24:40;;;;;;;13.60;4.40;;;6.30;99.90;;;;;;5077891;28;20182;-80
2022/01/30 05:27:06;;;;;;;12.00;4.30;;;6.30;99.90;;;;;;5078165;28;20636;-80
2022/01/30 05:29:32;;;;;;;9.07;3.40;;;6.20;99.90;;;;;;5077749;28;20417;-80
2022/01/30 05:31:58;;;;;;;11.73;3.50;;;6.10;99.90;;;;;;5078091;28;20416;-81
2022/01/30 05:34:23;;;;;;;11.40;3.67;;;6.00;99.90;;;;;;5097213;28;20175;-79
2022/01/30 05:36:50;;;;;;;19.17;3.87;;;5.90;99.90;;;;;;5097704;28;20177;-79
2022/01/30 05:39:16;;;;;;;13.30;3.87;;;5.90;99.90;;;;;;5098003;28;20195;-80
2022/01/30 05:41:42;;;;;;;13.10;3.00;;;5.90;99.90;;;;;;5079468;28;20423;-80
2022/01/30 05:44:14;;;;;;;8.93;3.43;;;5.90;99.90;;;;;;5079433;28;20777;-79
2022/01/30 05:46:52;;;;;;;11.70;3.20;;;5.80;99.90;;;;;;5079110;28;20236;-78
2022/01/30 05:49:19;;;;;;;13.23;3.60;;;5.80;99.90;;;;;;5079016;28;20923;-78
2022/01/30 05:51:45;;;;;;;13.23;3.37;;;5.70;99.90;;;;;;5079149;28;20414;-78
2022/01/30 05:54:10;;;;;;;16.00;4.53;;;5.70;99.90;;;;;;5079037;28;20472;-80
2022/01/30 05:56:37;;;;;;;11.77;3.23;;;5.60;99.90;;;;;;5078736;28;20213;-79
2022/01/30 05:59:03;;;;;;;16.23;4.10;;;5.50;99.90;;;;;;5079131;28;20187;-80
2022/01/30 06:01:29;;;;;;;10.80;3.20;;;5.50;99.90;;;;;;5096812;28;20414;-79
2022/01/30 06:03:55;;;;;;;13.23;2.80;;;5.50;99.90;;;;;;5097461;28;20473;-79
2022/01/30 06:06:20;;;;;;;12.33;3.70;;;5.50;99.90;;;;;;5094983;28;20460;-78
2022/01/30 06:08:47;;;;;;;12.03;2.77;;;5.50;99.90;;;;;;5094994;28;20174;-79
2022/01/30 06:11:14;;;;;;;12.00;3.03;;;5.60;99.90;;;;;;5075665;28;20184;-80
2022/01/30 06:13:40;;;;;;;16.63;3.10;;;5.50;99.90;;;;;;5076053;28;20420;-78
2022/01/30 06:16:06;;;;;;;13.33;3.20;;;5.50;99.90;;;;;;5093797;28;20473;-79
2022/01/30 06:18:32;;;;;;;13.23;3.50;;;5.60;99.90;;;;;;5088531;22;20861;-76
2022/01/30 06:20:58;;;;;;;15.10;3.93;;;5.50;99.90;;;;;;5055325;28;20417;-76
2022/01/30 06:23:26;;;;;;;10.53;3.27;;;5.50;99.90;;;;;;5054837;28;20441;-76
2022/01/30 06:25:53;;;;;;;10.17;3.30;;;5.40;99.90;;;;;;5053835;28;20182;-76
2022/01/30 06:28:19;;;;;;;9.60;2.80;;;5.40;99.90;;;;;;5054659;28;20423;-76
2022/01/30 06:30:45;;;;;;;13.90;3.43;;;5.40;99.90;;;;;;5054861;28;20903;-76
2022/01/30 06:33:11;;;;;;;9.23;2.80;;;5.50;99.90;;;;;;5054751;28;20437;-76
2022/01/30 06:35:37;;;;;;;13.50;4.20;;;5.40;99.90;;;;;;5054621;28;20663;-76
2022/01/30 06:38:03;;;;;;;14.97;3.40;;;5.50;99.90;;;;;;5054414;28;20265;-76
2022/01/30 06:40:29;;;;;;;8.70;3.33;;;5.50;99.90;;;;;;5054604;28;20181;-76
2022/01/30 06:42:55;;;;;;;9.37;2.63;;;5.50;99.90;;;;;;5054422;28;20531;-76
2022/01/30 06:45:21;;;;;;;11.73;3.33;;;5.50;99.90;;;;;;5054441;28;20432;-76
2022/01/30 06:47:47;;;;;;;7.33;2.70;;;5.60;99.90;;;;;;5053970;28;20543;-76
2022/01/30 06:50:14;;;;;;;10.40;3.40;;;5.70;99.90;;;;;;5054612;28;20448;-76
2022/01/30 06:52:40;;;;;;;10.77;3.23;;;5.80;99.90;;;;;;5054244;28;20443;-76
2022/01/30 06:55:06;;;;;;;20.23;3.10;;;5.80;99.90;;;;;;5054626;28;20767;-76
2022/01/30 06:57:33;;;;;;;6.80;3.63;;;5.90;99.90;;;;;;5054278;28;20421;-76
2022/01/30 06:59:59;;;;;;;15.10;4.17;;;5.90;99.90;;;;;;5054924;28;20517;-76
2022/01/30 07:02:25;;;;;;;15.40;4.73;;;5.90;99.90;;;;;;5054166;28;20448;-77
2022/01/30 07:04:51;;;;;;;7.83;2.80;;;5.90;99.90;;;;;;5054473;28;20420;-76
2022/01/30 07:07:17;;;;;;;9.40;2.57;;;6.00;99.90;;;;;;5054123;28;20472;-76
2022/01/30 07:09:43;;;;;;;11.27;2.80;;;6.00;99.90;;;;;;5054288;28;20417;-77
2022/01/30 07:12:09;;;;;;;19.17;3.90;;;6.10;99.90;;;;;;5054256;28;20171;-76
2022/01/30 07:14:35;;;;;;;11.00;3.50;;;6.00;99.90;;;;;;5054334;28;20225;-76
2022/01/30 07:17:00;;;;;;;8.00;3.67;;;6.00;99.90;;;;;;5054214;28;20459;-76
2022/01/30 07:19:26;;;;;;;8.80;2.47;;;6.00;99.90;;;;;;5054215;28;20198;-77
2022/01/30 07:21:53;;;;;;;8.40;2.83;;;6.00;99.90;;;;;;5054328;28;20416;-76
2022/01/30 07:24:19;;;;;;;12.13;3.23;;;6.00;99.90;;;;;;5054491;28;20184;-76
2022/01/30 07:26:45;;;;;;;10.43;3.27;;;6.00;99.90;;;;;;5053969;28;20566;-77
2022/01/30 07:29:11;;;;;;;9.03;2.60;;;6.00;99.90;;;;;;5053997;28;20507;-77
2022/01/30 07:31:37;;;;;;;11.97;4.67;;;6.00;99.90;;;;;;5053760;28;20872;-76
2022/01/30 07:34:03;;;;;;;8.10;2.80;;;6.10;99.90;;;;;;5053849;28;20432;-77
2022/01/30 07:36:33;;;;;;;6.03;3.23;;;6.00;99.90;;;;;;5053402;28;20516;-76
2022/01/30 07:38:59;;;;;;;9.30;3.20;;;6.00;99.90;;;;;;5053844;28;20423;-76
2022/01/30 07:41:25;;;;;;;12.70;2.53;;;6.10;99.90;;;;;;5053868;28;20424;-77
2022/01/30 07:43:51;;;;;;;8.93;2.80;;;6.00;99.90;;;;;;5053433;28;20831;-76
2022/01/30 07:46:17;;;;;;;14.10;3.90;;;6.00;99.90;;;;;;5053806;28;20591;-76
2022/01/30 07:48:42;;;;;;;7.00;2.60;;;6.10;99.90;;;;;;5053715;28;20421;-76
2022/01/30 07:51:08;;;;;;;4.67;2.67;;;6.10;99.90;;;;;;5053683;28;20426;-76
2022/01/30 07:53:35;;;;;;;6.87;3.80;;;6.20;99.90;;;;;;5053503;28;20293;-76
2022/01/30 07:56:00;;;;;;;7.80;2.83;;;6.10;99.90;;;;;;5053605;28;20181;-76
2022/01/30 07:58:26;;;;;;;11.00;2.97;;;6.10;99.90;;;;;;5053253;28;20522;-76
2022/01/30 08:00:52;;;;;;;20.27;3.30;;;6.10;99.90;;;;;;5053566;28;20588;-76
2022/01/30 08:03:18;;;;;;;9.40;3.10;;;6.00;99.90;;;;;;5053477;28;20535;-76
2022/01/30 08:05:44;;;;;;;9.57;3.70;;;6.10;99.90;;;;;;5053741;28;20182;-77
2022/01/30 08:08:09;;;;;;;14.27;3.23;;;6.20;99.90;;;;;;5053101;28;20236;-76
2022/01/30 08:10:35;;;;;;;7.43;2.27;;;6.20;99.90;;;;;;5053504;28;20182;-76
2022/01/30 08:13:02;;;;;;;8.00;2.63;;;6.20;99.90;;;;;;5053587;28;20204;-76
2022/01/30 08:15:28;;;;;;;14.17;3.57;;;6.20;99.90;;;;;;5053527;28;20410;-76
2022/01/30 08:17:54;;;;;;;7.07;3.30;;;6.20;99.90;;;;;;5053040;28;20817;-76
2022/01/30 08:20:21;;;;;;;9.63;3.50;;;6.20;99.90;;;;;;5053480;28;20664;-77
2022/01/30 08:22:51;;;;;;;10.20;4.23;;;6.20;99.90;;;;;;5053261;28;20211;-76
2022/01/30 08:25:21;;;;;;;10.80;4.00;;;6.30;99.90;;;;;;5053324;28;20425;-76
2022/01/30 08:27:48;;;;;;;11.70;3.13;;;6.40;99.90;;;;;;5053165;28;20542;-76
2022/01/30 08:30:15;;;;;;;10.93;2.93;;;6.50;99.90;;;;;;5053391;28;20412;-76
2022/01/30 08:32:46;;;;;;;12.03;2.50;;;6.40;99.90;;;;;;5053243;28;20449;-76
2022/01/30 08:35:13;;;;;;;15.80;2.90;;;6.30;99.90;;;;;;5053288;28;20922;-76
2022/01/30 08:37:40;;;;;;;6.77;2.47;;;6.20;99.90;;;;;;5053251;28;20470;-76
2022/01/30 08:40:09;;;;;;;13.23;2.87;;;6.10;99.90;;;;;;5053372;28;20459;-76
2022/01/30 08:42:36;;;;;;;13.07;2.90;;;6.10;99.90;;;;;;5053106;28;20452;-76
2022/01/30 08:45:04;;;;;;;10.67;3.07;;;6.20;99.90;;;;;;5053190;28;20417;-76
2022/01/30 08:47:29;;;;;;;6.47;2.03;;;6.20;99.90;;;;;;5052980;28;20460;-76
2022/01/30 08:49:55;;;;;;;12.27;2.43;;;6.20;99.90;;;;;;5055494;28;20420;-76
2022/01/30 08:52:21;;;;;;;9.13;2.70;;;6.20;99.90;;;;;;5056850;28;20294;-76
2022/01/30 08:54:49;;;;;;;10.73;3.20;;;6.20;99.90;;;;;;5056830;28;20186;-76
2022/01/30 08:57:15;;;;;;;10.63;2.83;;;6.30;99.90;;;;;;5056670;28;20471;-76
2022/01/30 08:59:41;;;;;;;10.97;3.90;;;6.40;99.90;;;;;;5056752;28;20462;-76
2022/01/30 09:02:08;;;;;;;8.10;2.83;;;6.60;99.90;;;;;;5056739;28;20194;-76
2022/01/30 09:04:34;;;;;;;13.47;3.47;;;6.80;99.90;;;;;;5056918;28;20776;-76
2022/01/30 09:07:00;;;;;;;9.07;2.97;;;7.00;99.90;;;;;;5056442;28;20460;-76
2022/01/30 09:09:25;;;;;;;5.87;2.20;;;7.00;99.90;;;;;;5056739;28;20405;-76
2022/01/30 09:11:52;;;;;;;13.73;4.23;;;7.20;99.90;;;;;;5056417;28;20236;-76
2022/01/30 09:14:17;;;;;;;9.80;2.90;;;7.20;99.90;;;;;;5056485;28;20175;-77
2022/01/30 09:16:45;;;;;;;9.30;2.83;;;7.30;99.90;;;;;;5056839;28;20500;-77
2022/01/30 09:19:11;;;;;;;7.80;2.83;;;7.30;99.90;;;;;;5056313;28;20198;-77
2022/01/30 09:21:37;;;;;;;14.60;3.77;;;7.30;99.90;;;;;;5056494;28;20947;-76
2022/01/30 09:24:03;;;;;;;10.20;3.50;;;7.30;99.90;;;;;;5056125;28;20437;-76
2022/01/30 09:26:29;;;;;;;10.60;3.73;;;7.40;99.90;;;;;;5056124;28;20256;-76
2022/01/30 09:28:54;;;;;;;14.33;4.20;;;7.40;99.90;;;;;;5056366;28;20421;-76
2022/01/30 09:31:20;;;;;;;16.33;4.00;;;7.30;99.90;;;;;;5056304;28;20577;-76
2022/01/30 09:33:47;;;;;;;9.37;2.63;;;7.30;99.90;;;;;;5056062;28;20286;-76
2022/01/30 09:36:14;;;;;;;13.40;2.83;;;7.30;99.90;;;;;;5056112;28;20198;-76
2022/01/30 09:38:40;;;;;;;14.53;2.90;;;7.50;99.90;;;;;;5056138;28;20421;-77
2022/01/30 09:41:09;;;;;;;9.43;3.10;;;7.50;99.90;;;;;;5056143;28;20418;-76
2022/01/30 09:43:35;;;;;;;10.93;3.10;;;7.40;99.90;;;;;;5056249;28;20440;-76
2022/01/30 09:46:02;;;;;;;13.30;2.97;;;7.40;99.90;;;;;;5055990;28;20420;-77
2022/01/30 09:48:31;;;;;;;9.93;3.33;;;7.50;99.90;;;;;;5056205;28;20958;-77
2022/01/30 09:50:58;;;;;;;12.13;4.40;;;7.60;99.90;;;;;;5056146;28;20758;-77
2022/01/30 09:53:24;;;;;;;7.07;2.47;;;7.70;99.90;;;;;;5056258;28;20443;-77
2022/01/30 09:55:50;;;;;;;15.87;3.10;;;7.80;99.90;;;;;;5055779;28;20786;-77
2022/01/30 09:58:16;;;;;;;10.73;4.00;;;7.90;99.90;;;;;;5055551;28;20193;-76
2022/01/30 10:00:41;;;;;;;13.40;3.10;;;7.90;99.90;;;;;;5055567;28;20179;-77
2022/01/30 10:03:07;;;;;;;9.83;2.77;;;7.90;99.90;;;;;;5056078;28;20313;-77
2022/01/30 10:05:36;;;;;;;10.67;3.10;;;8.00;99.90;;;;;;5055657;28;20224;-77
2022/01/30 10:08:03;;;;;;;14.77;4.80;;;7.90;99.90;;;;;;5055722;28;20211;-77
2022/01/30 10:10:30;;;;;;;10.10;2.50;;;8.10;99.90;;;;;;5055604;28;20421;-77
2022/01/30 10:13:11;;;;;;;8.50;3.20;;;8.20;99.90;;;;;;5055918;28;20955;-76
2022/01/30 10:15:49;;;;;;;7.77;2.93;;;8.00;99.90;;;;;;5055305;28;20414;-77
2022/01/30 10:18:16;;;;;;;17.93;3.43;;;8.00;99.90;;;;;;5054839;28;20436;-76
2022/01/30 10:20:42;;;;;;;9.80;3.00;;;8.20;99.90;;;;;;5055214;28;20435;-76
2022/01/30 10:23:09;;;;;;;10.27;2.50;;;8.20;99.90;;;;;;5055241;28;20525;-76
2022/01/30 10:25:39;;;;;;;9.20;2.53;;;8.10;99.90;;;;;;5055490;28;20709;-76
2022/01/30 10:28:42;;;;;;;9.73;4.23;;;8.30;99.90;;;;;;5054765;28;20496;-76
2022/01/30 10:31:08;;;;;;;8.90;4.00;;;8.30;99.90;;;;;;4974923;28;20435;-77
2022/01/30 10:33:49;;;;;;;11.63;3.20;;;8.30;99.90;;;;;;5040012;28;20460;-77
2022/01/30 10:36:23;;;;;;;7.53;2.50;;;8.30;99.90;;;;;;5054719;28;20830;-76
2022/01/30 10:39:11;;;;;;;11.03;3.23;;;8.40;99.90;;;;;;5055058;28;20414;-76
2022/01/30 10:41:39;;;;;;;16.80;4.00;;;8.60;99.90;;;;;;5054782;28;20436;-76
2022/01/30 10:44:06;;;;;;;7.03;3.20;;;8.70;99.90;;;;;;5054891;28;20468;-77
2022/01/30 10:46:33;;;;;;;9.90;3.43;;;8.70;99.90;;;;;;5054837;28;20460;-76
2022/01/30 10:49:23;;;;;;;12.20;3.33;;;8.70;99.90;;;;;;5055081;28;20930;-76
2022/01/30 10:51:52;;;;;;;11.53;3.60;;;9.00;99.90;;;;;;5045160;28;20432;-76
2022/01/30 10:54:18;;;;;;;7.10;3.13;;;9.10;99.90;;;;;;5055642;28;20940;-76
2022/01/30 10:56:44;;;;;;;12.00;3.20;;;9.10;99.90;;;;;;5054693;28;20421;-76
2022/01/30 10:59:22;;;;;;;17.23;5.20;;;9.00;99.90;;;;;;5054920;28;20183;-76
2022/01/30 11:01:51;;;;;;;14.30;3.17;;;8.90;99.90;;;;;;5054630;28;20654;-76
2022/01/30 11:04:30;;;;;;;19.23;5.97;;;8.70;99.90;;;;;;5054879;28;20765;-76
2022/01/30 11:06:59;;;;;;;14.10;3.73;;;8.90;99.90;;;;;;5054520;28;20548;-76
2022/01/30 11:09:31;;;;;;;12.40;3.57;;;9.00;99.90;;;;;;5054456;28;20418;-77
2022/01/30 11:12:07;;;;;;;15.57;4.17;;;9.00;99.90;;;;;;5053805;28;20798;-76
2022/01/30 11:14:50;;;;;;;10.67;3.33;;;9.00;99.90;;;;;;5054646;28;21034;-77
2022/01/30 11:17:21;;;;;;;12.43;3.90;;;8.70;99.90;;;;;;5054091;28;20936;-76
2022/01/30 11:19:51;;;;;;;6.67;3.20;;;8.90;99.90;;;;;;5054489;28;20527;-77
2022/01/30 11:22:20;;;;;;;14.27;3.60;;;8.80;99.90;;;;;;5054456;28;20440;-76
2022/01/30 11:24:52;;;;;;;14.87;4.07;;;9.00;99.90;;;;;;5054390;28;20425;-76
2022/01/30 11:27:20;;;;;;;11.87;3.43;;;9.50;99.90;;;;;;5054055;28;20473;-75
2022/01/30 11:29:47;;;;;;;12.20;3.30;;;10.60;99.90;;;;;;5054437;28;20428;-77
2022/01/30 11:32:15;;;;;;;10.67;3.87;;;12.10;99.90;;;;;;5054294;28;20445;-77
2022/01/30 11:34:42;;;;;;;9.87;3.63;;;13.60;99.90;;;;;;5054735;28;20421;-76
2022/01/30 11:37:10;;;;;;;16.27;4.63;;;14.70;99.90;;;;;;5054272;28;20524;-76
2022/01/30 11:39:40;;;;;;;10.93;3.57;;;14.60;97.30;;;;;;5054444;28;20418;-77
2022/01/30 11:42:27;;;;;;;15.70;5.57;;;15.40;95.70;;;;;;5054272;28;20933;-77
2022/01/30 11:45:27;;;;;;;11.23;4.03;;;15.90;91.60;;;;;;5055486;28;20421;-77
2022/01/30 11:48:03;;;;;;;10.70;4.07;;;15.80;91.60;;;;;;5060468;28;20858;-76
2022/01/30 11:50:34;;;;;;;10.73;4.10;;;15.40;88.90;;;;;;5054356;28;20520;-77
2022/01/30 11:53:10;;;;;;;14.07;4.00;;;14.30;91.10;;;;;;5054282;28;20449;-76
2022/01/30 11:55:50;;;;;;;11.30;3.80;;;13.60;95.20;;;;;;5054174;28;20413;-76
2022/01/30 11:58:34;;;;;;;10.20;3.60;;;12.60;98.90;;;;;;5053929;28;20468;-76
2022/01/30 12:01:04;;;;;;;17.97;4.83;;;12.00;99.90;;;;;;5053851;28;20547;-76
2022/01/30 12:03:37;;;;;;;12.50;4.00;;;11.10;99.90;;;;;;5054290;28;20441;-76
2022/01/30 12:06:21;;;;;;;16.83;4.97;;;10.60;99.90;;;;;;5053888;28;20417;-76
2022/01/30 12:08:50;;;;;;;13.90;4.13;;;10.00;99.90;;;;;;5053941;28;20456;-77
2022/01/30 12:11:47;;;;;;;11.77;5.53;;;9.70;99.90;;;;;;5053994;28;20506;-76
2022/01/30 12:14:19;;;;;;;14.03;3.63;;;9.70;99.90;;;;;;5047487;28;20429;-76
2022/01/30 12:16:51;;;;;;;17.37;4.93;;;9.50;99.90;;;;;;5053433;28;20420;-77
2022/01/30 12:19:45;;;;;;;14.77;4.17;;;9.40;99.90;;;;;;5067104;22;20562;-80
2022/01/30 12:22:16;;;;;;;12.73;4.20;;;9.40;99.90;;;;;;5041724;28;20897;-80
2022/01/30 12:24:46;;;;;;;10.87;4.00;;;9.40;99.90;;;;;;5076038;28;20405;-78
2022/01/30 12:27:12;;;;;;;12.40;3.53;;;9.50;99.90;;;;;;5058241;28;20452;-78
2022/01/30 12:29:45;;;;;;;9.77;3.13;;;9.50;99.90;;;;;;5076730;28;20444;-79
2022/01/30 12:32:20;;;;;;;11.53;4.33;;;9.30;99.90;;;;;;5058681;28;20177;-79
2022/01/30 12:35:04;;;;;;;11.13;3.50;;;9.20;99.90;;;;;;5059058;28;20794;-79
2022/01/30 12:37:36;;;;;;;12.27;4.37;;;9.30;99.90;;;;;;5058522;28;20416;-79
2022/01/30 12:40:16;;;;;;;10.77;3.20;;;9.20;99.90;;;;;;5058255;28;20478;-79
2022/01/30 12:42:42;;;;;;;19.53;3.93;;;9.40;99.90;;;;;;5058373;28;20871;-79
2022/01/30 12:45:09;;;;;;;19.03;5.10;;;9.30;99.90;;;;;;5058084;28;20952;-79
2022/01/30 12:47:53;;;;;;;12.87;3.60;;;9.50;99.90;;;;;;5057632;28;20473;-79
2022/01/30 12:50:20;;;;;;;14.10;3.90;;;9.50;99.90;;;;;;5057886;28;20815;-79
2022/01/30 12:52:52;;;;;;;14.40;3.43;;;9.40;99.90;;;;;;5075843;28;20416;-79
2022/01/30 12:55:19;;;;;;;12.53;4.90;;;9.40;99.90;;;;;;5075603;28;20554;-79
2022/01/30 12:57:49;;;;;;;17.80;5.67;;;9.40;99.90;;;;;;5057404;28;20441;-79
2022/01/30 13:00:16;;;;;;;14.50;3.67;;;9.50;99.90;;;;;;5057453;28;20527;-79
2022/01/30 13:02:57;;;;;;;10.63;4.30;;;9.50;99.90;;;;;;5057095;28;20534;-79
2022/01/30 13:05:24;;;;;;;10.73;4.20;;;9.90;99.90;;;;;;5075168;28;20500;-80
2022/01/30 13:07:54;;;;;;;18.33;3.57;;;10.00;99.90;;;;;;5075068;28;20452;-79
2022/01/30 13:10:21;;;;;;;17.50;3.90;;;9.90;99.90;;;;;;5057208;28;20520;-80
2022/01/30 13:12:47;;;;;;;15.57;4.37;;;9.80;99.90;;;;;;5075255;28;20495;-79
2022/01/30 13:15:15;;;;;;;16.03;4.73;;;9.90;99.90;;;;;;5057182;28;20516;-79
2022/01/30 13:17:42;;;;;;;13.20;4.57;;;10.10;99.90;;;;;;5075037;28;20781;-79
2022/01/30 13:20:12;;;;;;;22.07;4.10;;;10.20;99.90;;;;;;5074740;28;20441;-79
2022/01/30 13:22:40;;;;;;;12.50;3.57;;;10.10;99.90;;;;;;5075013;28;20483;-79
2022/01/30 13:25:09;;;;;;;12.57;3.60;;;10.20;99.90;;;;;;5075383;28;20448;-79
2022/01/30 13:27:39;;;;;;;13.43;3.97;;;11.00;99.90;;;;;;5074620;28;20452;-79
2022/01/30 13:30:06;;;;;;;8.73;3.53;;;11.90;99.90;;;;;;5056628;28;20537;-79
2022/01/30 13:32:32;;;;;;;17.77;4.40;;;12.70;99.90;;;;;;5074443;28;20908;-79
2022/01/30 13:34:58;;;;;;;17.07;4.23;;;13.60;99.90;;;;;;5073878;28;20410;-79
2022/01/30 13:37:24;;;;;;;11.97;3.50;;;12.90;99.20;;;;;;5056048;28;20262;-79
2022/01/30 13:42:54;;;;;;;9.37;4.03;;;11.90;99.90;;;;;;5074067;28;20520;-79
2022/01/30 13:47:56;;;;;;;14.73;3.73;;;11.30;99.90;;;;;;5073905;28;20453;-79
2022/01/30 13:50:47;;;;;;;9.13;3.53;;;11.40;99.90;;;;;;5073845;28;20195;-80
2022/01/30 13:53:19;;;;;;;11.50;4.50;;;11.40;99.90;;;;;;5055943;28;20421;-79
2022/01/30 13:56:01;;;;;;;8.40;2.60;;;11.30;99.90;;;;;;5074016;28;20412;-79
2022/01/30 13:58:45;;;;;;;16.40;4.10;;;11.00;99.90;;;;;;5073646;28;20429;-79